Time;durP1;ratioP1;P1;durP2;ratioP2;P2;SDS_P1;SDS_P2;PMS_P1;PMS_P2;Temp;Humidity;BMP_temperature;BMP_pressure;BME280_temperature;BME280_humidity;BME280_pressure;Samples;Min_cycle;Max_cycle;Signal;HPM_P1;HPM_P2
2023/01/20 00:01:37;;;;;;;5.03;3.53;;;0.60;99.90;;;;;;5068699;27;92551;-72
2023/01/20 00:04:05;;;;;;;6.32;3.92;;;0.60;99.90;;;;;;5016746;28;98451;-71
2023/01/20 00:06:32;;;;;;;7.60;4.45;;;0.60;99.90;;;;;;5068478;27;97979;-72
2023/01/20 00:09:01;;;;;;;8.40;4.78;;;0.60;99.90;;;;;;5036217;28;92362;-72
2023/01/20 00:11:29;;;;;;;9.82;4.97;;;0.60;99.90;;;;;;5035983;28;92488;-71
2023/01/20 00:13:58;;;;;;;9.15;5.05;;;0.60;99.90;;;;;;5035821;28;93233;-72
2023/01/20 00:16:26;;;;;;;7.32;4.78;;;0.50;99.90;;;;;;5035745;28;92846;-72
2023/01/20 00:18:53;;;;;;;9.93;4.50;;;0.50;99.90;;;;;;5034417;28;92912;-73
2023/01/20 00:21:21;;;;;;;5.95;5.03;;;0.50;99.90;;;;;;5035192;28;91819;-72
2023/01/20 00:23:49;;;;;;;10.25;5.03;;;0.50;99.90;;;;;;5035487;27;93410;-73
2023/01/20 00:26:19;;;;;;;6.43;4.93;;;0.50;99.90;;;;;;5035926;28;93184;-73
2023/01/20 00:28:47;;;;;;;7.80;5.18;;;0.50;99.90;;;;;;5067345;27;94875;-73
2023/01/20 00:31:20;;;;;;;6.85;5.35;;;0.50;99.90;;;;;;5034265;28;92775;-73
2023/01/20 00:33:48;;;;;;;9.48;5.60;;;0.60;99.90;;;;;;5035324;28;93650;-72
2023/01/20 00:36:17;;;;;;;9.15;5.25;;;0.60;99.90;;;;;;5035254;28;93424;-73
2023/01/20 00:38:44;;;;;;;6.63;5.00;;;0.60;99.90;;;;;;5034360;28;93032;-72
2023/01/20 00:41:13;;;;;;;8.02;5.03;;;0.70;99.90;;;;;;5034627;28;92451;-72
2023/01/20 00:43:40;;;;;;;7.93;5.20;;;0.80;99.90;;;;;;5034951;28;93225;-73
2023/01/20 00:46:07;;;;;;;8.77;5.15;;;0.80;99.90;;;;;;5034603;28;93076;-73
2023/01/20 00:48:35;;;;;;;6.15;5.55;;;0.90;99.90;;;;;;5035473;28;92382;-72
2023/01/20 00:51:04;;;;;;;8.25;6.30;;;1.00;99.90;;;;;;5050813;27;92476;-73
2023/01/20 00:53:31;;;;;;;7.78;5.43;;;1.10;99.90;;;;;;5036874;28;96060;-72
2023/01/20 00:55:58;;;;;;;9.43;5.55;;;1.20;99.90;;;;;;5071339;27;95384;-73
2023/01/20 00:58:25;;;;;;;8.00;5.43;;;1.30;99.90;;;;;;5039240;28;92954;-73
2023/01/20 01:00:54;;;;;;;9.77;7.00;;;1.30;99.90;;;;;;5071488;27;92504;-73
2023/01/20 01:03:21;;;;;;;9.25;6.18;;;1.40;99.90;;;;;;5071685;27;95879;-73
2023/01/20 01:05:48;;;;;;;13.48;8.10;;;1.50;99.90;;;;;;5037331;28;93039;-73
2023/01/20 01:08:15;;;;;;;11.70;7.57;;;1.50;99.90;;;;;;5037880;28;92427;-73
2023/01/20 01:10:42;;;;;;;10.70;7.38;;;1.70;99.90;;;;;;5039104;27;91755;-73
2023/01/20 01:13:09;;;;;;;15.50;8.13;;;1.70;99.90;;;;;;5038564;28;93934;-73
2023/01/20 01:15:37;;;;;;;11.57;7.38;;;1.80;99.90;;;;;;5038146;28;104409;-73
2023/01/20 01:18:04;;;;;;;10.73;7.40;;;1.90;99.90;;;;;;5070118;27;94918;-72
2023/01/20 01:20:31;;;;;;;11.18;7.22;;;2.00;99.90;;;;;;5071312;27;92502;-72
2023/01/20 01:22:58;;;;;;;13.07;8.75;;;2.00;99.90;;;;;;5053738;27;96246;-73
2023/01/20 01:25:25;;;;;;;11.70;8.57;;;2.10;99.90;;;;;;5038395;27;92619;-72
2023/01/20 01:27:52;;;;;;;9.75;7.53;;;2.10;99.90;;;;;;5038458;28;92554;-72
2023/01/20 01:30:19;;;;;;;9.95;7.47;;;2.20;99.90;;;;;;5038576;28;92544;-73
2023/01/20 01:32:46;;;;;;;10.23;7.75;;;2.20;99.90;;;;;;5038092;28;93347;-73
2023/01/20 01:35:13;;;;;;;12.05;8.55;;;2.20;99.90;;;;;;5037474;28;93099;-72
2023/01/20 01:37:41;;;;;;;11.50;6.97;;;2.30;99.90;;;;;;5070475;27;93222;-73
2023/01/20 01:40:09;;;;;;;11.98;8.00;;;2.30;99.90;;;;;;5038343;28;92473;-72
2023/01/20 01:42:36;;;;;;;12.82;8.63;;;2.40;99.90;;;;;;5037031;28;95646;-72
2023/01/20 01:45:09;;;;;;;10.98;7.75;;;2.40;99.90;;;;;;5036475;28;97844;-72
2023/01/20 01:47:51;;;;;;;11.60;9.00;;;2.40;99.90;;;;;;5053852;27;92623;-72
2023/01/20 01:50:41;;;;;;;13.32;9.00;;;2.40;99.90;;;;;;5070579;27;92434;-73
2023/01/20 01:53:09;;;;;;;12.27;8.73;;;2.40;99.90;;;;;;5070635;27;93389;-72
2023/01/20 01:55:40;;;;;;;13.27;9.23;;;2.40;99.90;;;;;;5037912;28;93026;-72
2023/01/20 01:58:13;;;;;;;15.43;9.82;;;2.40;99.90;;;;;;5038241;28;92435;-72
2023/01/20 02:00:41;;;;;;;15.25;9.30;;;2.50;99.90;;;;;;5070928;27;92092;-72
2023/01/20 02:03:09;;;;;;;14.38;8.80;;;2.50;99.90;;;;;;5052951;27;94370;-72
2023/01/20 02:05:38;;;;;;;13.98;9.32;;;2.50;99.90;;;;;;5069698;27;101594;-72
2023/01/20 02:08:07;;;;;;;14.52;9.18;;;2.50;99.90;;;;;;5036743;28;95407;-72
2023/01/20 02:10:34;;;;;;;16.83;10.13;;;2.50;99.90;;;;;;5037844;28;92452;-72
2023/01/20 02:13:01;;;;;;;14.90;9.48;;;2.50;99.90;;;;;;5035693;28;96081;-71
2023/01/20 02:16:08;;;;;;;14.73;10.23;;;2.50;99.90;;;;;;5037540;28;93297;-72
2023/01/20 02:18:50;;;;;;;15.75;9.77;;;2.60;99.90;;;;;;5035202;28;92483;-72
2023/01/20 02:21:41;;;;;;;15.77;10.50;;;2.60;99.90;;;;;;5038339;28;92438;-72
2023/01/20 02:24:25;;;;;;;16.27;10.43;;;2.60;99.90;;;;;;5036974;27;93076;-72
2023/01/20 02:27:07;;;;;;;13.43;9.30;;;2.60;99.90;;;;;;5036063;28;95980;-73
2023/01/20 02:29:51;;;;;;;13.82;9.13;;;2.60;99.90;;;;;;5036487;28;92956;-73
2023/01/20 02:32:21;;;;;;;;;;;2.60;99.90;;;;;;5038180;28;92558;-73
2023/01/20 02:34:57;;;;;;;14.25;8.55;;;2.60;99.90;;;;;;5037499;27;95634;-73
2023/01/20 02:37:28;;;;;;;15.20;9.65;;;2.60;99.90;;;;;;5069609;27;98131;-73
2023/01/20 02:40:14;;;;;;;14.60;9.85;;;2.60;99.90;;;;;;5070024;27;92382;-73
2023/01/20 02:42:49;;;;;;;12.13;8.93;;;2.60;99.90;;;;;;5037673;27;92320;-73
2023/01/20 02:45:21;;;;;;;15.20;9.20;;;2.70;99.90;;;;;;5069753;27;93578;-73
2023/01/20 02:48:17;;;;;;;13.07;9.23;;;2.70;99.90;;;;;;5037199;28;93398;-73
2023/01/20 02:51:09;;;;;;;11.40;8.32;;;2.80;99.90;;;;;;5027956;28;92601;-73
2023/01/20 02:53:53;;;;;;;12.75;8.30;;;2.70;99.90;;;;;;5070349;27;91798;-73
2023/01/20 02:56:24;;;;;;;11.45;8.48;;;2.70;99.90;;;;;;5037259;28;93429;-73
2023/01/20 02:58:57;;;;;;;9.02;7.40;;;2.70;99.90;;;;;;5037117;28;93358;-72
2023/01/20 03:01:38;;;;;;;11.13;8.52;;;2.70;99.90;;;;;;5051628;27;95149;-73
2023/01/20 03:04:08;;;;;;;11.38;7.93;;;2.70;99.90;;;;;;5037304;28;92638;-73
2023/01/20 03:06:40;;;;;;;10.63;7.68;;;2.70;99.90;;;;;;5069493;27;96230;-73
2023/01/20 03:09:13;;;;;;;12.63;8.32;;;2.70;99.90;;;;;;5036692;28;93182;-72
2023/01/20 03:11:46;;;;;;;10.82;8.25;;;2.70;99.90;;;;;;5069624;27;92489;-73
2023/01/20 03:14:15;;;;;;;11.35;8.55;;;2.70;99.90;;;;;;5036928;28;92417;-73
2023/01/20 03:16:42;;;;;;;11.48;8.35;;;2.70;99.90;;;;;;5036620;27;93518;-73
2023/01/20 03:19:10;;;;;;;10.77;8.95;;;2.70;99.90;;;;;;5069501;27;94061;-73
2023/01/20 03:21:37;;;;;;;12.10;8.38;;;2.70;99.90;;;;;;5036916;28;92489;-73
2023/01/20 03:24:05;;;;;;;11.95;9.13;;;2.70;99.90;;;;;;5035268;28;92457;-73
2023/01/20 03:26:32;;;;;;;12.20;9.48;;;2.70;99.90;;;;;;5035554;28;95713;-73
2023/01/20 03:29:07;;;;;;;14.00;10.05;;;2.70;99.90;;;;;;5036443;28;95364;-73
2023/01/20 03:31:48;;;;;;;12.77;9.27;;;2.80;99.90;;;;;;5035002;28;92590;-73
2023/01/20 03:34:20;;;;;;;14.35;10.15;;;2.80;99.90;;;;;;5018505;28;92591;-73
2023/01/20 03:36:48;;;;;;;14.90;10.82;;;2.80;99.90;;;;;;5034884;28;93691;-73
2023/01/20 03:39:16;;;;;;;16.55;9.93;;;2.80;99.90;;;;;;5018063;28;92459;-73
2023/01/20 03:42:12;;;;;;;13.77;9.43;;;2.70;99.90;;;;;;5069206;27;92555;-73
2023/01/20 03:45:04;;;;;;;13.73;9.35;;;2.70;99.90;;;;;;5069509;27;91779;-73
2023/01/20 03:47:43;;;;;;;17.77;10.63;;;2.70;99.90;;;;;;5036381;27;93655;-73
2023/01/20 03:50:45;;;;;;;15.52;10.35;;;2.70;99.90;;;;;;5034452;28;95880;-73
2023/01/20 03:53:15;;;;;;;15.60;11.02;;;2.70;99.90;;;;;;5029740;28;94937;-73
2023/01/20 03:55:50;;;;;;;16.42;11.10;;;2.60;99.90;;;;;;5034567;28;92441;-73
2023/01/20 03:58:23;;;;;;;18.80;11.48;;;2.60;99.90;;;;;;5034295;28;93290;-73
2023/01/20 04:00:51;;;;;;;18.63;11.23;;;2.60;99.90;;;;;;5035704;27;92882;-73
2023/01/20 04:03:24;;;;;;;18.27;11.85;;;2.60;99.90;;;;;;5034352;28;92765;-73
2023/01/20 04:05:52;;;;;;;16.25;11.07;;;2.60;99.90;;;;;;5035832;28;92536;-73
2023/01/20 04:08:22;;;;;;;16.20;11.63;;;2.60;99.90;;;;;;5035450;28;92394;-73
2023/01/20 04:10:51;;;;;;;17.60;11.57;;;2.60;99.90;;;;;;5034592;28;93159;-73
2023/01/20 04:13:17;;;;;;;16.48;11.18;;;2.60;99.90;;;;;;5050873;27;92699;-73
2023/01/20 04:15:45;;;;;;;14.70;10.68;;;2.60;99.90;;;;;;5035680;27;92448;-73
2023/01/20 04:18:15;;;;;;;19.83;11.55;;;2.60;99.90;;;;;;5033689;27;95676;-72
2023/01/20 04:20:45;;;;;;;20.60;12.00;;;2.60;99.90;;;;;;5035347;28;95694;-72
2023/01/20 04:23:23;;;;;;;17.75;11.85;;;2.60;99.90;;;;;;5035094;27;92483;-72
2023/01/20 04:25:50;;;;;;;17.25;11.15;;;2.60;99.90;;;;;;5035878;28;93144;-72
2023/01/20 04:28:17;;;;;;;17.17;10.77;;;2.60;99.90;;;;;;5032824;27;96354;-72
2023/01/20 04:30:44;;;;;;;17.73;10.55;;;2.60;99.90;;;;;;5033826;28;92926;-72
2023/01/20 04:33:11;;;;;;;17.33;11.07;;;2.60;99.90;;;;;;5034038;28;92384;-72
2023/01/20 04:35:38;;;;;;;18.00;11.00;;;2.60;99.90;;;;;;5034413;28;92253;-73
2023/01/20 04:38:05;;;;;;;18.08;10.48;;;2.60;99.90;;;;;;5033648;27;93202;-72
2023/01/20 04:40:32;;;;;;;18.02;12.07;;;2.60;99.90;;;;;;5017155;28;92965;-71
2023/01/20 04:42:59;;;;;;;18.73;11.68;;;2.70;99.90;;;;;;5032464;28;94900;-72
2023/01/20 04:45:26;;;;;;;18.73;11.75;;;2.60;99.90;;;;;;5034865;27;92908;-72
2023/01/20 04:47:53;;;;;;;15.05;10.23;;;2.70;99.90;;;;;;5033669;28;93200;-72
2023/01/20 04:50:20;;;;;;;17.10;11.43;;;2.70;99.90;;;;;;5034961;27;93084;-72
2023/01/20 04:52:47;;;;;;;17.55;10.50;;;2.60;99.90;;;;;;5033454;28;92426;-73
2023/01/20 04:55:14;;;;;;;17.08;10.38;;;2.60;99.90;;;;;;5050635;27;92428;-72
2023/01/20 04:57:42;;;;;;;18.05;10.77;;;2.60;99.90;;;;;;5033616;27;93268;-72
2023/01/20 05:00:10;;;;;;;17.02;10.18;;;2.60;99.90;;;;;;5033798;28;93368;-72
2023/01/20 05:02:37;;;;;;;18.23;10.63;;;2.60;99.90;;;;;;5016742;28;92972;-72
2023/01/20 05:05:04;;;;;;;17.77;10.55;;;2.60;99.90;;;;;;5033636;28;92450;-72
2023/01/20 05:07:31;;;;;;;15.77;10.07;;;2.60;99.90;;;;;;4998549;28;96711;-72
2023/01/20 05:09:58;;;;;;;16.40;10.35;;;2.60;99.90;;;;;;5033302;28;95393;-72
2023/01/20 05:12:25;;;;;;;17.30;9.65;;;2.60;99.90;;;;;;5033139;28;92866;-72
2023/01/20 05:14:52;;;;;;;16.00;10.63;;;2.60;99.90;;;;;;5050836;27;92480;-72
2023/01/20 05:17:19;;;;;;;17.85;11.75;;;2.60;99.90;;;;;;5033107;28;93268;-74
2023/01/20 05:19:46;;;;;;;16.92;10.13;;;2.60;99.90;;;;;;5034586;28;93046;-73
2023/01/20 05:22:13;;;;;;;50.10;24.90;;;2.60;99.90;;;;;;5034976;27;93056;-73
2023/01/20 05:24:40;;;;;;;14.20;9.40;;;2.60;99.90;;;;;;5033297;28;91782;-73
2023/01/20 05:27:07;;;;;;;14.15;9.32;;;2.60;99.90;;;;;;5033640;28;93264;-73
2023/01/20 05:29:34;;;;;;;14.65;10.57;;;2.60;99.90;;;;;;5033521;28;92929;-73
2023/01/20 05:32:01;;;;;;;14.32;9.30;;;2.60;99.90;;;;;;5033376;27;95053;-73
2023/01/20 05:34:31;;;;;;;12.27;8.50;;;2.60;99.90;;;;;;5050043;27;92540;-73
2023/01/20 05:36:58;;;;;;;15.68;10.65;;;2.60;99.90;;;;;;4999708;28;95683;-73
2023/01/20 05:39:25;;;;;;;15.38;9.60;;;2.70;99.90;;;;;;5017605;28;93089;-73
2023/01/20 05:41:52;;;;;;;15.13;9.57;;;2.70;99.90;;;;;;5036835;28;92409;-73
2023/01/20 05:44:19;;;;;;;15.40;9.70;;;2.70;99.90;;;;;;5038444;28;92469;-73
2023/01/20 05:46:46;;;;;;;14.82;10.00;;;2.70;99.90;;;;;;5053932;27;95945;-73
2023/01/20 05:49:13;;;;;;;15.20;9.82;;;2.70;99.90;;;;;;5019796;28;95613;-73
2023/01/20 05:51:40;;;;;;;14.73;10.05;;;2.70;99.90;;;;;;5036769;28;92433;-73
2023/01/20 05:54:07;;;;;;;15.40;9.27;;;2.70;99.90;;;;;;5036379;27;92632;-73
2023/01/20 05:56:34;;;;;;;13.95;9.73;;;2.80;99.90;;;;;;5035192;28;98557;-73
2023/01/20 05:59:01;;;;;;;13.07;9.48;;;2.80;99.90;;;;;;5036426;28;98364;-73
2023/01/20 06:01:28;;;;;;;12.80;8.50;;;2.80;99.90;;;;;;5036814;28;92453;-73
2023/01/20 06:03:55;;;;;;;15.98;10.90;;;2.80;99.90;;;;;;5053819;27;92460;-73
2023/01/20 06:06:22;;;;;;;19.83;12.00;;;2.80;99.90;;;;;;5037509;28;93294;-73
2023/01/20 06:08:51;;;;;;;15.07;9.80;;;2.80;99.90;;;;;;5035872;28;99434;-73
2023/01/20 06:11:19;;;;;;;12.32;7.97;;;2.80;99.90;;;;;;5037985;28;92795;-73
2023/01/20 06:13:47;;;;;;;17.00;11.15;;;2.80;99.90;;;;;;5053558;27;91754;-73
2023/01/20 06:16:16;;;;;;;15.55;10.90;;;2.80;99.90;;;;;;5037157;27;93311;-73
2023/01/20 06:18:43;;;;;;;16.50;10.40;;;2.80;99.90;;;;;;5036919;28;93258;-73
2023/01/20 06:21:10;;;;;;;24.02;19.13;;;2.80;99.90;;;;;;5034778;28;94734;-73
2023/01/20 06:23:37;;;;;;;17.15;11.55;;;2.80;99.90;;;;;;5035923;28;93071;-73
2023/01/20 06:26:10;;;;;;;18.00;10.98;;;2.90;99.90;;;;;;5035658;28;96062;-73
2023/01/20 06:28:37;;;;;;;20.58;11.43;;;2.80;99.90;;;;;;5037015;27;93288;-73
2023/01/20 06:31:06;;;;;;;15.07;9.35;;;2.90;99.90;;;;;;5035977;28;92576;-73
2023/01/20 06:33:34;;;;;;;16.98;11.70;;;2.90;99.90;;;;;;5037170;28;92445;-73
2023/01/20 06:36:01;;;;;;;19.45;11.05;;;2.90;99.90;;;;;;5035910;28;93300;-73
2023/01/20 06:38:31;;;;;;;19.42;12.57;;;2.80;99.90;;;;;;5037171;28;92925;-73
2023/01/20 06:41:04;;;;;;;19.23;12.13;;;2.90;99.90;;;;;;5036813;27;93002;-73
2023/01/20 06:43:33;;;;;;;18.50;13.10;;;2.90;99.90;;;;;;5035769;28;92492;-73
2023/01/20 06:46:02;;;;;;;17.52;11.20;;;2.80;99.90;;;;;;5035114;28;96130;-73
2023/01/20 06:48:29;;;;;;;16.42;11.13;;;2.80;99.90;;;;;;5035346;28;98215;-73
2023/01/20 06:51:05;;;;;;;19.38;12.43;;;2.80;99.90;;;;;;5036286;27;92535;-73
2023/01/20 06:53:32;;;;;;;21.67;11.25;;;2.90;99.90;;;;;;5036612;27;93062;-74
2023/01/20 06:56:00;;;;;;;19.73;12.20;;;2.90;99.90;;;;;;5018599;28;95948;-74
2023/01/20 06:58:29;;;;;;;21.02;12.85;;;2.90;99.90;;;;;;5036569;28;93283;-74
2023/01/20 07:01:02;;;;;;;20.90;14.15;;;2.90;99.90;;;;;;5036400;27;92427;-74
2023/01/20 07:03:29;;;;;;;19.85;11.98;;;2.90;99.90;;;;;;5035902;28;91723;-73
2023/01/20 07:06:01;;;;;;;20.85;11.90;;;2.90;99.90;;;;;;5035168;28;93261;-72
2023/01/20 07:08:29;;;;;;;22.77;12.63;;;2.90;99.90;;;;;;5035181;28;95693;-72
2023/01/20 07:10:56;;;;;;;59.47;35.58;;;2.90;99.90;;;;;;5033814;28;94838;-73
2023/01/20 07:13:23;;;;;;;32.47;20.00;;;3.00;99.90;;;;;;5036782;27;92984;-72
2023/01/20 07:15:50;;;;;;;21.95;16.00;;;2.90;99.90;;;;;;5036076;27;93330;-72
2023/01/20 07:18:17;;;;;;;23.08;15.40;;;3.00;99.90;;;;;;5036359;28;92936;-72
2023/01/20 07:20:44;;;;;;;22.83;11.90;;;2.90;99.90;;;;;;5018366;28;93115;-72
2023/01/20 07:23:11;;;;;;;23.08;13.38;;;3.00;99.90;;;;;;5035243;28;93103;-72
2023/01/20 07:25:38;;;;;;;25.05;14.02;;;3.00;99.90;;;;;;5034449;28;93186;-72
2023/01/20 07:28:05;;;;;;;24.35;14.48;;;3.00;99.90;;;;;;5036597;27;92184;-72
2023/01/20 07:30:32;;;;;;;24.73;14.13;;;3.00;99.90;;;;;;5035051;28;92446;-73
2023/01/20 07:32:59;;;;;;;26.70;14.68;;;3.00;99.90;;;;;;5034581;28;93092;-73
2023/01/20 07:35:26;;;;;;;25.23;14.38;;;3.00;99.90;;;;;;5034789;27;95713;-73
2023/01/20 07:37:53;;;;;;;26.75;16.02;;;3.00;99.90;;;;;;5033619;28;97997;-73
2023/01/20 07:40:20;;;;;;;27.25;16.10;;;3.00;99.90;;;;;;5018182;28;92507;-73
2023/01/20 07:42:47;;;;;;;25.45;15.82;;;3.00;99.90;;;;;;5036156;28;92435;-73
2023/01/20 07:45:15;;;;;;;24.13;14.20;;;3.00;99.90;;;;;;5035768;27;93183;-73
2023/01/20 07:47:42;;;;;;;28.58;16.45;;;3.00;99.90;;;;;;5035480;27;93382;-73
2023/01/20 07:50:09;;;;;;;33.08;17.40;;;3.00;99.90;;;;;;5035998;27;92749;-73
2023/01/20 07:52:36;;;;;;;27.90;15.68;;;3.00;99.90;;;;;;5017963;28;91719;-73
2023/01/20 07:55:04;;;;;;;31.73;16.40;;;3.00;99.90;;;;;;5017249;28;94836;-73
2023/01/20 07:57:31;;;;;;;27.17;15.70;;;3.10;99.90;;;;;;5034346;28;93138;-73
2023/01/20 07:59:58;;;;;;;27.33;15.15;;;3.10;99.90;;;;;;5034295;27;94874;-74
2023/01/20 08:02:25;;;;;;;29.02;16.33;;;3.10;99.90;;;;;;5033793;27;92431;-73
2023/01/20 08:04:52;;;;;;;26.30;15.65;;;3.20;99.90;;;;;;5017214;28;93084;-73
2023/01/20 08:07:19;;;;;;;28.05;16.15;;;3.10;99.90;;;;;;5035594;28;93176;-72
2023/01/20 08:09:47;;;;;;;29.35;16.80;;;3.20;99.90;;;;;;5051077;27;93071;-72
2023/01/20 08:12:14;;;;;;;30.67;16.83;;;3.20;99.90;;;;;;5034263;28;92494;-72
2023/01/20 08:14:41;;;;;;;31.27;16.70;;;3.30;99.90;;;;;;5051094;27;94963;-73
2023/01/20 08:17:08;;;;;;;30.08;16.33;;;3.30;99.90;;;;;;5035850;28;93055;-73
2023/01/20 08:19:35;;;;;;;29.08;15.73;;;3.30;99.90;;;;;;5034234;28;92485;-73
2023/01/20 08:22:02;;;;;;;30.02;17.90;;;3.30;99.90;;;;;;5017286;28;92408;-73
2023/01/20 08:24:29;;;;;;;34.00;17.40;;;3.40;99.90;;;;;;5032530;28;97988;-73
2023/01/20 08:26:56;;;;;;;28.02;15.98;;;3.50;99.90;;;;;;5033834;28;95720;-73
2023/01/20 08:29:23;;;;;;;30.33;17.23;;;3.50;99.90;;;;;;5033993;28;92630;-73
2023/01/20 08:31:50;;;;;;;30.27;16.25;;;3.50;99.90;;;;;;5033914;28;92443;-73
2023/01/20 08:34:18;;;;;;;29.45;16.05;;;3.50;99.90;;;;;;5033720;28;93265;-73
2023/01/20 08:36:48;;;;;;;30.67;16.77;;;3.60;99.90;;;;;;5033475;28;95236;-73
2023/01/20 08:39:17;;;;;;;27.95;15.52;;;3.60;99.90;;;;;;5035098;27;92454;-73
2023/01/20 08:41:46;;;;;;;31.55;16.73;;;3.60;99.90;;;;;;5034341;27;92174;-73
2023/01/20 08:44:14;;;;;;;28.15;16.02;;;3.70;99.90;;;;;;5034818;27;93272;-73
2023/01/20 08:46:42;;;;;;;29.60;17.67;;;3.70;99.90;;;;;;5033847;28;93091;-73
2023/01/20 08:49:15;;;;;;;30.00;16.48;;;3.70;99.90;;;;;;5016135;28;94884;-73
2023/01/20 08:51:43;;;;;;;26.80;16.83;;;3.80;99.90;;;;;;5033822;28;92575;-73
2023/01/20 08:54:11;;;;;;;30.13;16.55;;;3.80;99.90;;;;;;5034318;28;96678;-73
2023/01/20 08:56:38;;;;;;;28.23;15.60;;;3.80;99.90;;;;;;5035085;27;93344;-74
2023/01/20 08:59:05;;;;;;;61.15;28.90;;;3.80;99.90;;;;;;5033209;28;92609;-73
2023/01/20 09:01:35;;;;;;;31.70;17.70;;;3.90;99.90;;;;;;5017044;28;92979;-73
2023/01/20 09:04:02;;;;;;;28.52;15.85;;;3.80;99.90;;;;;;5034470;28;93168;-73
2023/01/20 09:06:38;;;;;;;28.35;15.75;;;3.80;99.90;;;;;;5017443;28;95464;-73
2023/01/20 09:09:05;;;;;;;27.03;17.73;;;3.90;99.90;;;;;;5033355;28;92581;-73
2023/01/20 09:11:32;;;;;;;29.75;16.45;;;3.90;99.90;;;;;;5033555;28;92550;-73
2023/01/20 09:13:59;;;;;;;31.67;16.65;;;3.90;99.90;;;;;;5033569;28;98303;-73
2023/01/20 09:16:26;;;;;;;27.52;16.75;;;3.90;99.90;;;;;;5019961;28;98080;-73
2023/01/20 09:18:53;;;;;;;27.50;15.32;;;3.90;99.90;;;;;;5037107;28;92497;-72
2023/01/20 09:21:20;;;;;;;24.67;14.57;;;3.90;99.90;;;;;;5054132;27;92489;-73
2023/01/20 09:23:47;;;;;;;24.77;15.15;;;3.90;99.90;;;;;;5036870;28;95696;-73
2023/01/20 09:26:15;;;;;;;30.98;16.52;;;3.90;99.90;;;;;;5037970;27;93120;-73
2023/01/20 09:29:07;;;;;;;27.38;15.55;;;3.90;99.90;;;;;;5036696;28;92513;-73
2023/01/20 09:31:37;;;;;;;26.55;14.25;;;4.00;99.90;;;;;;5037434;28;92419;-73
2023/01/20 09:34:04;;;;;;;28.95;14.45;;;4.00;99.90;;;;;;5036342;28;93273;-73
2023/01/20 09:36:31;;;;;;;25.20;15.20;;;4.00;99.90;;;;;;5053487;27;95323;-74
2023/01/20 09:45:02;;;;;;;25.73;14.63;;;4.10;99.90;;;;;;4994921;28;95732;-73
2023/01/20 09:47:42;;;;;;;27.05;15.02;;;4.10;99.90;;;;;;4978389;28;95334;-73
2023/01/20 09:53:44;;;;;;;26.95;15.48;;;4.20;99.90;;;;;;4995352;28;92418;-74
2023/01/20 09:56:18;;;;;;;27.58;15.32;;;4.20;99.90;;;;;;5014229;27;93277;-74
2023/01/20 09:59:04;;;;;;;26.60;16.23;;;4.20;99.90;;;;;;5038117;27;93124;-74
2023/01/20 10:01:52;;;;;;;26.83;15.23;;;4.20;99.90;;;;;;5036272;28;92888;-73
2023/01/20 10:04:39;;;;;;;27.52;16.17;;;4.30;99.90;;;;;;5037328;28;92490;-74
2023/01/20 10:07:09;;;;;;;28.10;15.93;;;4.30;99.90;;;;;;5036071;28;95790;-73
2023/01/20 10:09:59;;;;;;;29.77;16.73;;;4.20;99.90;;;;;;5035933;28;95386;-74
2023/01/20 10:12:34;;;;;;;27.55;15.98;;;4.30;99.90;;;;;;5037143;28;92499;-74
2023/01/20 10:15:07;;;;;;;32.35;17.35;;;4.30;99.90;;;;;;5052755;27;92475;-73
2023/01/20 10:18:08;;;;;;;27.75;17.05;;;4.20;99.90;;;;;;5052992;27;95941;-73
2023/01/20 10:20:44;;;;;;;25.55;14.57;;;4.20;99.90;;;;;;5009460;28;95643;-74
2023/01/20 10:23:25;;;;;;;30.98;18.00;;;4.10;99.90;;;;;;5069771;27;92551;-74
2023/01/20 10:26:08;;;;;;;27.30;16.08;;;4.10;99.90;;;;;;5036937;27;91723;-73
2023/01/20 10:28:54;;;;;;;32.75;17.75;;;4.10;99.90;;;;;;5035607;28;96596;-73
2023/01/20 10:31:27;;;;;;;27.90;16.40;;;4.00;99.90;;;;;;5035570;28;92978;-73
2023/01/20 10:34:04;;;;;;;32.22;17.80;;;4.10;99.90;;;;;;5068359;27;94857;-74
2023/01/20 10:36:33;;;;;;;27.33;16.33;;;4.10;99.90;;;;;;5037450;27;92908;-73
2023/01/20 10:39:16;;;;;;;33.47;17.27;;;4.10;99.90;;;;;;5035380;28;92454;-74
2023/01/20 10:41:49;;;;;;;30.73;16.70;;;4.20;99.90;;;;;;5052414;27;94220;-74
2023/01/20 10:44:16;;;;;;;29.75;17.23;;;4.20;99.90;;;;;;5036903;28;92421;-73
2023/01/20 10:47:05;;;;;;;25.60;15.85;;;4.20;99.90;;;;;;5019023;28;92459;-74
2023/01/20 10:49:32;;;;;;;31.58;17.58;;;4.30;99.90;;;;;;5036781;28;93413;-74
2023/01/20 10:52:36;;;;;;;27.20;16.75;;;4.40;99.90;;;;;;5018933;28;95454;-73
2023/01/20 10:55:18;;;;;;;31.23;17.52;;;4.40;99.90;;;;;;5035338;28;92396;-74
2023/01/20 10:58:13;;;;;;;28.70;16.95;;;4.40;99.90;;;;;;5069434;27;92478;-74
2023/01/20 11:00:41;;;;;;;26.60;15.90;;;4.50;99.90;;;;;;5035620;27;95554;-74
2023/01/20 11:03:14;;;;;;;30.25;16.92;;;4.50;99.90;;;;;;5035041;28;98179;-74
2023/01/20 11:05:42;;;;;;;28.30;16.30;;;4.60;99.90;;;;;;5036685;27;92444;-73
2023/01/20 11:08:18;;;;;;;28.10;15.32;;;4.60;99.90;;;;;;5069013;27;92497;-74
2023/01/20 11:10:48;;;;;;;29.55;15.45;;;4.70;99.90;;;;;;5034717;28;95718;-74
2023/01/20 11:13:16;;;;;;;29.23;15.90;;;4.60;99.90;;;;;;5034669;28;92876;-74
2023/01/20 11:15:50;;;;;;;30.95;16.85;;;4.60;99.90;;;;;;5034826;28;92413;-73
2023/01/20 11:18:19;;;;;;;28.63;16.20;;;4.70;99.90;;;;;;5052452;27;91690;-73
2023/01/20 11:20:46;;;;;;;34.97;18.60;;;4.60;99.90;;;;;;5034896;28;96076;-74
2023/01/20 11:23:29;;;;;;;27.30;16.17;;;4.60;99.90;;;;;;5035640;27;92895;-74
2023/01/20 11:25:57;;;;;;;28.10;17.33;;;4.60;99.90;;;;;;5035169;27;95022;-73
2023/01/20 11:28:25;;;;;;;33.08;19.02;;;4.60;99.90;;;;;;5017959;28;93635;-73
2023/01/20 11:30:54;;;;;;;33.58;16.80;;;4.60;99.90;;;;;;5018070;28;93200;-74
2023/01/20 11:33:25;;;;;;;28.65;15.80;;;4.70;99.90;;;;;;5034481;28;93073;-73
2023/01/20 11:36:22;;;;;;;29.42;17.40;;;4.70;99.90;;;;;;5036149;27;92375;-73
2023/01/20 11:38:50;;;;;;;42.60;30.98;;;4.70;99.90;;;;;;5036083;27;92354;-74
2023/01/20 11:41:22;;;;;;;36.13;25.80;;;4.70;99.90;;;;;;5034591;28;95691;-73
2023/01/20 11:43:57;;;;;;;28.55;16.83;;;4.70;99.90;;;;;;5036458;28;93039;-73
2023/01/20 11:46:28;;;;;;;29.55;16.23;;;4.70;99.90;;;;;;5034693;28;92940;-73
2023/01/20 11:49:13;;;;;;;28.70;16.42;;;4.70;99.90;;;;;;5036252;28;92545;-74
2023/01/20 11:51:55;;;;;;;;;;;4.70;99.90;;;;;;5016800;28;98300;-73
2023/01/20 11:54:28;;;;;;;28.67;15.73;;;4.70;99.90;;;;;;5035722;28;97653;-73
2023/01/20 11:57:06;;;;;;;30.15;15.75;;;4.80;99.90;;;;;;5036094;27;92419;-73
2023/01/20 11:59:36;;;;;;;30.98;16.10;;;4.80;99.90;;;;;;5035961;27;93050;-74
2023/01/20 12:02:06;;;;;;;29.30;15.90;;;4.80;99.90;;;;;;5068118;27;96053;-73
2023/01/20 12:04:41;;;;;;;30.70;16.48;;;4.80;99.90;;;;;;5051121;27;94651;-73
2023/01/20 12:07:17;;;;;;;32.58;17.17;;;4.80;99.90;;;;;;5034332;28;92515;-73
2023/01/20 12:09:48;;;;;;;27.48;15.18;;;4.70;99.90;;;;;;5035062;28;91680;-73
2023/01/20 12:13:03;;;;;;;23.95;13.32;;;4.60;99.90;;;;;;5034430;28;93187;-73
2023/01/20 12:15:38;;;;;;;25.20;14.13;;;4.60;99.90;;;;;;5001086;27;93082;-73
2023/01/20 12:18:07;;;;;;;31.63;16.38;;;4.40;99.90;;;;;;5016290;28;94913;-73
2023/01/20 12:20:50;;;;;;;25.52;13.15;;;4.40;99.90;;;;;;5035512;27;92462;-73
2023/01/20 12:23:50;;;;;;;28.85;15.13;;;4.40;99.90;;;;;;5035213;27;93263;-73
2023/01/20 12:26:20;;;;;;;31.80;16.52;;;4.50;99.90;;;;;;5050955;27;95649;-73
2023/01/20 12:29:14;;;;;;;32.35;17.67;;;4.50;99.90;;;;;;5050999;27;92588;-74
2023/01/20 12:31:43;;;;;;;26.05;13.43;;;4.60;99.90;;;;;;5035433;27;92341;-73
2023/01/20 12:34:37;;;;;;;32.30;15.75;;;4.50;99.90;;;;;;5033653;28;92928;-73
2023/01/20 12:37:13;;;;;;;26.60;13.90;;;4.60;99.90;;;;;;5035397;27;92956;-72
2023/01/20 12:40:10;;;;;;;23.15;13.15;;;4.60;99.90;;;;;;5035128;28;92499;-73
2023/01/20 12:42:53;;;;;;;29.60;15.52;;;4.60;99.90;;;;;;5016904;28;92530;-74
2023/01/20 12:45:45;;;;;;;29.52;16.23;;;4.60;99.90;;;;;;5032639;28;95492;-73
2023/01/20 12:48:32;;;;;;;26.45;15.20;;;4.70;99.90;;;;;;5033220;28;95450;-73
2023/01/20 12:51:26;;;;;;;26.80;14.80;;;4.70;99.90;;;;;;5067794;27;92461;-74
2023/01/20 12:54:18;;;;;;;34.55;15.73;;;4.80;99.90;;;;;;5034930;28;92447;-74
2023/01/20 12:57:09;;;;;;;25.95;14.00;;;4.80;99.90;;;;;;5067297;27;96069;-73
2023/01/20 13:00:18;;;;;;;27.10;16.17;;;4.90;99.90;;;;;;5034745;28;93118;-73
2023/01/20 13:03:01;;;;;;;27.17;14.48;;;4.90;99.90;;;;;;5033479;28;92383;-73
2023/01/20 13:06:09;;;;;;;25.38;14.15;;;4.80;99.90;;;;;;5034975;27;91632;-73
2023/01/20 13:08:59;;;;;;;41.72;25.25;;;4.80;99.90;;;;;;5032928;28;95844;-74
2023/01/20 13:11:54;;;;;;;32.70;15.98;;;4.80;99.90;;;;;;5066958;27;95647;-73
2023/01/20 13:14:41;;;;;;;30.48;19.65;;;4.80;99.90;;;;;;5032270;28;95331;-73
2023/01/20 13:17:16;;;;;;;32.03;16.70;;;4.70;99.90;;;;;;5034958;27;92347;-73